sensor_id;sensor_type;location;lat;lon;timestamp;temperature;humidity
49222;DHT22;35047;37.588;-122.048;2023-01-10T00:00:30;22.20;82.40
49222;DHT22;35047;37.588;-122.048;2023-01-10T00:03:04;22.30;82.40
49222;DHT22;35047;37.588;-122.048;2023-01-10T00:05:39;22.20;82.30
49222;DHT22;35047;37.588;-122.048;2023-01-10T00:08:09;22.40;81.90
49222;DHT22;35047;37.588;-122.048;2023-01-10T00:10:37;22.30;81.60
49222;DHT22;35047;37.588;-122.048;2023-01-10T00:13:03;22.20;82.20
49222;DHT22;35047;37.588;-122.048;2023-01-10T00:15:53;22.10;82.00
49222;DHT22;35047;37.588;-122.048;2023-01-10T00:18:22;21.90;82.20
49222;DHT22;35047;37.588;-122.048;2023-01-10T00:20:48;21.80;82.60
49222;DHT22;35047;37.588;-122.048;2023-01-10T00:23:16;21.80;82.50
49222;DHT22;35047;37.588;-122.048;2023-01-10T00:25:43;21.80;82.90
49222;DHT22;35047;37.588;-122.048;2023-01-10T00:28:10;22.00;82.40
49222;DHT22;35047;37.588;-122.048;2023-01-10T00:30:50;22.00;82.20
49222;DHT22;35047;37.588;-122.048;2023-01-10T00:33:37;22.10;81.90
49222;DHT22;35047;37.588;-122.048;2023-01-10T00:36:05;22.00;81.10
49222;DHT22;35047;37.588;-122.048;2023-01-10T00:38:33;21.90;81.70
49222;DHT22;35047;37.588;-122.048;2023-01-10T00:41:02;21.90;81.70
49222;DHT22;35047;37.588;-122.048;2023-01-10T00:43:49;21.80;82.40
49222;DHT22;35047;37.588;-122.048;2023-01-10T00:46:22;21.70;81.70
49222;DHT22;35047;37.588;-122.048;2023-01-10T00:48:49;21.60;82.10
49222;DHT22;35047;37.588;-122.048;2023-01-10T00:51:15;21.50;82.60
49222;DHT22;35047;37.588;-122.048;2023-01-10T00:53:42;21.50;82.60
49222;DHT22;35047;37.588;-122.048;2023-01-10T00:56:09;21.50;83.00
49222;DHT22;35047;37.588;-122.048;2023-01-10T00:58:36;21.60;82.70
49222;DHT22;35047;37.588;-122.048;2023-01-10T01:01:02;21.50;82.40
49222;DHT22;35047;37.588;-122.048;2023-01-10T01:03:29;21.50;82.30
49222;DHT22;35047;37.588;-122.048;2023-01-10T01:05:55;21.20;82.80
49222;DHT22;35047;37.588;-122.048;2023-01-10T01:08:23;21.20;82.90
49222;DHT22;35047;37.588;-122.048;2023-01-10T01:10:49;21.10;83.20
49222;DHT22;35047;37.588;-122.048;2023-01-10T01:13:18;21.10;83.60
49222;DHT22;35047;37.588;-122.048;2023-01-10T01:15:46;21.00;83.50
49222;DHT22;35047;37.588;-122.048;2023-01-10T01:18:15;20.90;83.70
49222;DHT22;35047;37.588;-122.048;2023-01-10T01:20:43;20.90;83.80
49222;DHT22;35047;37.588;-122.048;2023-01-10T01:23:12;20.80;83.90
49222;DHT22;35047;37.588;-122.048;2023-01-10T01:25:40;20.70;83.50
49222;DHT22;35047;37.588;-122.048;2023-01-10T01:28:06;20.70;84.20
49222;DHT22;35047;37.588;-122.048;2023-01-10T01:30:34;20.80;84.00
49222;DHT22;35047;37.588;-122.048;2023-01-10T01:33:01;20.90;83.70
49222;DHT22;35047;37.588;-122.048;2023-01-10T01:35:28;20.90;83.50
49222;DHT22;35047;37.588;-122.048;2023-01-10T01:37:54;20.90;83.40
49222;DHT22;35047;37.588;-122.048;2023-01-10T01:40:21;20.70;83.60
49222;DHT22;35047;37.588;-122.048;2023-01-10T01:42:48;20.80;83.40
49222;DHT22;35047;37.588;-122.048;2023-01-10T01:50:27;20.60;83.40
49222;DHT22;35047;37.588;-122.048;2023-01-10T01:53:01;20.40;83.60
49222;DHT22;35047;37.588;-122.048;2023-01-10T01:55:30;20.40;83.40
49222;DHT22;35047;37.588;-122.048;2023-01-10T01:58:00;20.30;83.70
49222;DHT22;35047;37.588;-122.048;2023-01-10T02:00:31;20.30;84.10
49222;DHT22;35047;37.588;-122.048;2023-01-10T02:03:01;20.30;83.60
49222;DHT22;35047;37.588;-122.048;2023-01-10T02:05:29;20.30;83.30
49222;DHT22;35047;37.588;-122.048;2023-01-10T02:07:59;20.00;84.20
49222;DHT22;35047;37.588;-122.048;2023-01-10T02:10:58;20.00;83.90
49222;DHT22;35047;37.588;-122.048;2023-01-10T02:13:29;19.90;84.10
49222;DHT22;35047;37.588;-122.048;2023-01-10T02:15:56;19.90;83.80
49222;DHT22;35047;37.588;-122.048;2023-01-10T02:18:23;19.70;84.10
49222;DHT22;35047;37.588;-122.048;2023-01-10T02:32:35;19.70;83.30
49222;DHT22;35047;37.588;-122.048;2023-01-10T02:40:33;19.40;83.90
49222;DHT22;35047;37.588;-122.048;2023-01-10T02:43:19;19.30;83.70
49222;DHT22;35047;37.588;-122.048;2023-01-10T02:45:58;19.00;85.00
49222;DHT22;35047;37.588;-122.048;2023-01-10T02:48:27;19.10;84.90
49222;DHT22;35047;37.588;-122.048;2023-01-10T02:53:42;19.10;84.90
49222;DHT22;35047;37.588;-122.048;2023-01-10T02:56:42;19.10;84.70
49222;DHT22;35047;37.588;-122.048;2023-01-10T02:59:32;18.90;84.50
49222;DHT22;35047;37.588;-122.048;2023-01-10T03:07:42;18.50;86.60
49222;DHT22;35047;37.588;-122.048;2023-01-10T03:10:13;18.70;86.10
49222;DHT22;35047;37.588;-122.048;2023-01-10T03:13:05;18.60;86.40
49222;DHT22;35047;37.588;-122.048;2023-01-10T03:15:37;18.70;86.20
49222;DHT22;35047;37.588;-122.048;2023-01-10T03:18:13;18.70;86.00
49222;DHT22;35047;37.588;-122.048;2023-01-10T03:20:44;18.70;86.00
49222;DHT22;35047;37.588;-122.048;2023-01-10T03:23:13;18.70;85.90
49222;DHT22;35047;37.588;-122.048;2023-01-10T03:25:42;18.70;86.10
49222;DHT22;35047;37.588;-122.048;2023-01-10T03:28:15;18.70;85.80
49222;DHT22;35047;37.588;-122.048;2023-01-10T03:33:30;18.30;86.20
49222;DHT22;35047;37.588;-122.048;2023-01-10T03:38:55;18.40;86.60
49222;DHT22;35047;37.588;-122.048;2023-01-10T03:50:19;18.30;86.80
49222;DHT22;35047;37.588;-122.048;2023-01-10T03:52:47;18.20;86.70
49222;DHT22;35047;37.588;-122.048;2023-01-10T03:55:19;18.30;86.90
49222;DHT22;35047;37.588;-122.048;2023-01-10T03:57:47;18.20;86.80
49222;DHT22;35047;37.588;-122.048;2023-01-10T04:00:14;18.20;86.70
49222;DHT22;35047;37.588;-122.048;2023-01-10T04:02:41;18.10;86.20
49222;DHT22;35047;37.588;-122.048;2023-01-10T04:05:09;18.10;84.50
49222;DHT22;35047;37.588;-122.048;2023-01-10T04:07:37;18.10;86.60
49222;DHT22;35047;37.588;-122.048;2023-01-10T04:10:06;18.00;87.50
49222;DHT22;35047;37.588;-122.048;2023-01-10T04:12:34;17.80;87.70
49222;DHT22;35047;37.588;-122.048;2023-01-10T04:15:00;17.70;88.30
49222;DHT22;35047;37.588;-122.048;2023-01-10T04:17:28;17.70;88.90
49222;DHT22;35047;37.588;-122.048;2023-01-10T04:19:54;17.70;88.60
49222;DHT22;35047;37.588;-122.048;2023-01-10T04:22:22;17.80;88.20
49222;DHT22;35047;37.588;-122.048;2023-01-10T04:24:49;17.80;88.30
49222;DHT22;35047;37.588;-122.048;2023-01-10T04:27:19;17.80;87.90
49222;DHT22;35047;37.588;-122.048;2023-01-10T04:29:46;17.80;87.50
49222;DHT22;35047;37.588;-122.048;2023-01-10T04:32:13;17.70;87.40
49222;DHT22;35047;37.588;-122.048;2023-01-10T04:34:40;17.70;87.70
49222;DHT22;35047;37.588;-122.048;2023-01-10T04:37:06;17.70;88.00
49222;DHT22;35047;37.588;-122.048;2023-01-10T04:39:34;17.60;88.30
49222;DHT22;35047;37.588;-122.048;2023-01-10T04:42:01;17.60;88.50
49222;DHT22;35047;37.588;-122.048;2023-01-10T04:44:28;17.60;89.10
49222;DHT22;35047;37.588;-122.048;2023-01-10T04:46:54;17.50;88.80
49222;DHT22;35047;37.588;-122.048;2023-01-10T04:49:21;17.50;89.10
49222;DHT22;35047;37.588;-122.048;2023-01-10T04:51:48;17.50;89.20
49222;DHT22;35047;37.588;-122.048;2023-01-10T04:54:19;17.50;89.10
49222;DHT22;35047;37.588;-122.048;2023-01-10T04:56:46;17.40;89.20
49222;DHT22;35047;37.588;-122.048;2023-01-10T04:59:13;17.40;89.90
49222;DHT22;35047;37.588;-122.048;2023-01-10T05:01:41;17.40;90.00
49222;DHT22;35047;37.588;-122.048;2023-01-10T05:04:08;17.50;89.70
49222;DHT22;35047;37.588;-122.048;2023-01-10T05:06:36;17.50;89.40
49222;DHT22;35047;37.588;-122.048;2023-01-10T05:09:06;17.60;89.00
49222;DHT22;35047;37.588;-122.048;2023-01-10T05:11:32;17.40;89.20
49222;DHT22;35047;37.588;-122.048;2023-01-10T05:13:59;17.30;89.10
49222;DHT22;35047;37.588;-122.048;2023-01-10T05:16:26;17.40;89.10
49222;DHT22;35047;37.588;-122.048;2023-01-10T05:18:54;17.40;89.00
49222;DHT22;35047;37.588;-122.048;2023-01-10T05:21:20;17.40;89.00
49222;DHT22;35047;37.588;-122.048;2023-01-10T05:23:47;17.30;89.30
49222;DHT22;35047;37.588;-122.048;2023-01-10T05:26:17;17.30;89.00
49222;DHT22;35047;37.588;-122.048;2023-01-10T05:28:45;17.30;88.80
49222;DHT22;35047;37.588;-122.048;2023-01-10T05:31:14;17.30;89.10
49222;DHT22;35047;37.588;-122.048;2023-01-10T05:33:45;17.20;88.70
49222;DHT22;35047;37.588;-122.048;2023-01-10T05:36:13;17.30;89.20
49222;DHT22;35047;37.588;-122.048;2023-01-10T05:38:41;17.30;89.40
49222;DHT22;35047;37.588;-122.048;2023-01-10T05:41:08;17.20;89.70
49222;DHT22;35047;37.588;-122.048;2023-01-10T05:43:35;17.10;89.40
49222;DHT22;35047;37.588;-122.048;2023-01-10T05:46:02;17.20;89.40
49222;DHT22;35047;37.588;-122.048;2023-01-10T05:48:28;17.20;89.50
49222;DHT22;35047;37.588;-122.048;2023-01-10T05:50:55;17.10;89.60
49222;DHT22;35047;37.588;-122.048;2023-01-10T05:53:22;17.10;89.70
49222;DHT22;35047;37.588;-122.048;2023-01-10T05:55:57;17.20;89.80
49222;DHT22;35047;37.588;-122.048;2023-01-10T05:58:25;17.10;90.10
49222;DHT22;35047;37.588;-122.048;2023-01-10T06:00:53;17.00;89.90
49222;DHT22;35047;37.588;-122.048;2023-01-10T06:03:22;17.10;90.50
49222;DHT22;35047;37.588;-122.048;2023-01-10T06:05:49;17.20;90.40
49222;DHT22;35047;37.588;-122.048;2023-01-10T06:08:17;17.10;90.60
49222;DHT22;35047;37.588;-122.048;2023-01-10T06:10:44;17.10;90.90
49222;DHT22;35047;37.588;-122.048;2023-01-10T06:13:11;17.10;90.70
49222;DHT22;35047;37.588;-122.048;2023-01-10T06:15:38;17.10;91.00
49222;DHT22;35047;37.588;-122.048;2023-01-10T06:18:05;17.20;90.70
49222;DHT22;35047;37.588;-122.048;2023-01-10T06:20:32;17.10;90.90
49222;DHT22;35047;37.588;-122.048;2023-01-10T06:22:59;17.20;90.70
49222;DHT22;35047;37.588;-122.048;2023-01-10T06:25:30;17.20;90.60
49222;DHT22;35047;37.588;-122.048;2023-01-10T06:27:58;17.10;90.70
49222;DHT22;35047;37.588;-122.048;2023-01-10T06:30:24;17.20;90.70
49222;DHT22;35047;37.588;-122.048;2023-01-10T06:32:52;17.20;90.60
49222;DHT22;35047;37.588;-122.048;2023-01-10T06:35:19;17.10;90.60
49222;DHT22;35047;37.588;-122.048;2023-01-10T06:37:45;17.00;91.00
49222;DHT22;35047;37.588;-122.048;2023-01-10T06:40:13;17.10;91.10
49222;DHT22;35047;37.588;-122.048;2023-01-10T06:42:40;17.10;90.90
49222;DHT22;35047;37.588;-122.048;2023-01-10T06:45:07;17.10;91.10
49222;DHT22;35047;37.588;-122.048;2023-01-10T06:47:33;17.20;91.00
49222;DHT22;35047;37.588;-122.048;2023-01-10T06:50:01;17.20;91.00
49222;DHT22;35047;37.588;-122.048;2023-01-10T06:52:29;17.10;91.00
49222;DHT22;35047;37.588;-122.048;2023-01-10T06:54:56;17.10;91.00
49222;DHT22;35047;37.588;-122.048;2023-01-10T06:57:25;17.20;91.20
49222;DHT22;35047;37.588;-122.048;2023-01-10T06:59:53;17.30;91.10
49222;DHT22;35047;37.588;-122.048;2023-01-10T07:02:20;17.30;91.20
49222;DHT22;35047;37.588;-122.048;2023-01-10T07:04:48;17.30;91.20
49222;DHT22;35047;37.588;-122.048;2023-01-10T07:07:15;17.30;91.20
49222;DHT22;35047;37.588;-122.048;2023-01-10T07:09:42;17.30;91.30
49222;DHT22;35047;37.588;-122.048;2023-01-10T07:12:09;17.30;91.00
49222;DHT22;35047;37.588;-122.048;2023-01-10T07:14:36;17.30;91.20
49222;DHT22;35047;37.588;-122.048;2023-01-10T07:17:02;17.40;91.30
49222;DHT22;35047;37.588;-122.048;2023-01-10T07:19:30;17.30;91.30
49222;DHT22;35047;37.588;-122.048;2023-01-10T07:21:57;17.30;91.20
49222;DHT22;35047;37.588;-122.048;2023-01-10T07:24:24;17.30;91.40
49222;DHT22;35047;37.588;-122.048;2023-01-10T07:26:54;17.20;90.90
49222;DHT22;35047;37.588;-122.048;2023-01-10T07:29:21;17.10;91.40
49222;DHT22;35047;37.588;-122.048;2023-01-10T07:31:47;17.10;91.50
49222;DHT22;35047;37.588;-122.048;2023-01-10T07:34:14;17.00;91.90
49222;DHT22;35047;37.588;-122.048;2023-01-10T07:36:41;17.10;92.00
49222;DHT22;35047;37.588;-122.048;2023-01-10T07:39:09;17.10;92.10
49222;DHT22;35047;37.588;-122.048;2023-01-10T07:41:36;17.00;92.10
49222;DHT22;35047;37.588;-122.048;2023-01-10T07:44:03;16.90;92.40
49222;DHT22;35047;37.588;-122.048;2023-01-10T07:46:29;16.90;92.60
49222;DHT22;35047;37.588;-122.048;2023-01-10T07:48:56;16.90;92.80
49222;DHT22;35047;37.588;-122.048;2023-01-10T07:51:23;17.00;93.30
49222;DHT22;35047;37.588;-122.048;2023-01-10T07:53:50;17.00;92.70
49222;DHT22;35047;37.588;-122.048;2023-01-10T07:56:16;16.90;92.60
49222;DHT22;35047;37.588;-122.048;2023-01-10T07:58:43;17.00;92.80
49222;DHT22;35047;37.588;-122.048;2023-01-10T08:01:11;17.00;92.80
49222;DHT22;35047;37.588;-122.048;2023-01-10T08:03:38;16.90;92.90
49222;DHT22;35047;37.588;-122.048;2023-01-10T08:06:06;17.00;93.20
49222;DHT22;35047;37.588;-122.048;2023-01-10T08:08:35;17.10;93.30
49222;DHT22;35047;37.588;-122.048;2023-01-10T08:11:02;17.10;93.10
49222;DHT22;35047;37.588;-122.048;2023-01-10T08:13:31;17.10;92.90
49222;DHT22;35047;37.588;-122.048;2023-01-10T08:15:57;17.10;92.80
49222;DHT22;35047;37.588;-122.048;2023-01-10T08:18:25;17.20;92.90
49222;DHT22;35047;37.588;-122.048;2023-01-10T08:20:52;17.20;92.90
49222;DHT22;35047;37.588;-122.048;2023-01-10T08:23:20;17.20;92.60
49222;DHT22;35047;37.588;-122.048;2023-01-10T08:25:47;17.30;92.80
49222;DHT22;35047;37.588;-122.048;2023-01-10T08:28:16;17.30;92.80
49222;DHT22;35047;37.588;-122.048;2023-01-10T08:30:43;17.30;92.70
49222;DHT22;35047;37.588;-122.048;2023-01-10T08:33:11;17.30;92.50
49222;DHT22;35047;37.588;-122.048;2023-01-10T08:35:39;17.50;93.30
49222;DHT22;35047;37.588;-122.048;2023-01-10T08:38:07;17.60;92.90
49222;DHT22;35047;37.588;-122.048;2023-01-10T08:40:34;17.50;92.30
49222;DHT22;35047;37.588;-122.048;2023-01-10T08:43:07;17.70;93.40
49222;DHT22;35047;37.588;-122.048;2023-01-10T08:45:35;17.80;93.30
49222;DHT22;35047;37.588;-122.048;2023-01-10T08:48:05;18.00;93.00
49222;DHT22;35047;37.588;-122.048;2023-01-10T08:50:34;18.10;92.30
49222;DHT22;35047;37.588;-122.048;2023-01-10T08:53:01;18.00;91.50
49222;DHT22;35047;37.588;-122.048;2023-01-10T08:55:28;18.20;92.60
49222;DHT22;35047;37.588;-122.048;2023-01-10T08:57:58;18.20;92.60
49222;DHT22;35047;37.588;-122.048;2023-01-10T09:00:26;18.30;92.30
49222;DHT22;35047;37.588;-122.048;2023-01-10T09:02:52;18.40;91.80
49222;DHT22;35047;37.588;-122.048;2023-01-10T09:05:19;18.30;91.50
49222;DHT22;35047;37.588;-122.048;2023-01-10T09:07:46;18.30;91.50
49222;DHT22;35047;37.588;-122.048;2023-01-10T09:10:13;18.30;91.60
49222;DHT22;35047;37.588;-122.048;2023-01-10T09:12:40;18.20;90.40
49222;DHT22;35047;37.588;-122.048;2023-01-10T09:15:25;18.20;90.70
49222;DHT22;35047;37.588;-122.048;2023-01-10T09:17:58;18.00;90.00
49222;DHT22;35047;37.588;-122.048;2023-01-10T09:20:27;18.20;91.20
49222;DHT22;35047;37.588;-122.048;2023-01-10T09:22:56;18.10;91.10
49222;DHT22;35047;37.588;-122.048;2023-01-10T09:25:23;18.10;91.20
49222;DHT22;35047;37.588;-122.048;2023-01-10T09:28:01;18.20;91.20
49222;DHT22;35047;37.588;-122.048;2023-01-10T09:30:29;18.20;91.20
49222;DHT22;35047;37.588;-122.048;2023-01-10T09:32:56;18.30;91.50
49222;DHT22;35047;37.588;-122.048;2023-01-10T09:35:23;18.30;91.10
49222;DHT22;35047;37.588;-122.048;2023-01-10T09:37:54;18.30;91.20
49222;DHT22;35047;37.588;-122.048;2023-01-10T09:49:12;18.20;91.50
49222;DHT22;35047;37.588;-122.048;2023-01-10T09:51:46;18.20;91.80
49222;DHT22;35047;37.588;-122.048;2023-01-10T09:54:27;18.10;91.60
49222;DHT22;35047;37.588;-122.048;2023-01-10T09:56:54;18.20;92.10
49222;DHT22;35047;37.588;-122.048;2023-01-10T09:59:40;18.20;92.20
49222;DHT22;35047;37.588;-122.048;2023-01-10T10:02:28;18.20;92.30
49222;DHT22;35047;37.588;-122.048;2023-01-10T10:07:32;18.10;93.00
49222;DHT22;35047;37.588;-122.048;2023-01-10T10:09:58;17.90;93.00
49222;DHT22;35047;37.588;-122.048;2023-01-10T10:15:23;17.70;93.40
49222;DHT22;35047;37.588;-122.048;2023-01-10T10:26:26;17.10;95.20
49222;DHT22;35047;37.588;-122.048;2023-01-10T10:34:33;15.90;90.00
49222;DHT22;35047;37.588;-122.048;2023-01-10T10:39:56;15.80;93.90
49222;DHT22;35047;37.588;-122.048;2023-01-10T10:42:34;15.90;93.10
49222;DHT22;35047;37.588;-122.048;2023-01-10T10:45:06;15.70;90.80
49222;DHT22;35047;37.588;-122.048;2023-01-10T10:47:43;15.70;91.50
49222;DHT22;35047;37.588;-122.048;2023-01-10T10:52:43;15.40;91.30
49222;DHT22;35047;37.588;-122.048;2023-01-10T10:55:15;15.40;91.40
49222;DHT22;35047;37.588;-122.048;2023-01-10T10:57:45;15.50;90.80
49222;DHT22;35047;37.588;-122.048;2023-01-10T11:00:19;15.50;90.80
49222;DHT22;35047;37.588;-122.048;2023-01-10T11:05:39;15.60;91.50
49222;DHT22;35047;37.588;-122.048;2023-01-10T11:08:09;15.70;90.80
49222;DHT22;35047;37.588;-122.048;2023-01-10T11:10:47;15.60;90.20
49222;DHT22;35047;37.588;-122.048;2023-01-10T11:16:01;15.70;89.30
49222;DHT22;35047;37.588;-122.048;2023-01-10T11:18:31;15.70;89.70
49222;DHT22;35047;37.588;-122.048;2023-01-10T11:21:24;15.60;89.60
49222;DHT22;35047;37.588;-122.048;2023-01-10T11:23:56;15.60;90.30
49222;DHT22;35047;37.588;-122.048;2023-01-10T11:26:30;15.60;90.10
49222;DHT22;35047;37.588;-122.048;2023-01-10T11:31:46;15.90;90.00
49222;DHT22;35047;37.588;-122.048;2023-01-10T11:36:53;15.90;87.80
49222;DHT22;35047;37.588;-122.048;2023-01-10T11:39:20;16.20;91.00
49222;DHT22;35047;37.588;-122.048;2023-01-10T11:41:48;16.30;91.80
49222;DHT22;35047;37.588;-122.048;2023-01-10T11:44:26;16.20;86.50
49222;DHT22;35047;37.588;-122.048;2023-01-10T11:47:00;16.30;90.30
49222;DHT22;35047;37.588;-122.048;2023-01-10T11:49:35;16.20;89.00
49222;DHT22;35047;37.588;-122.048;2023-01-10T11:52:12;16.20;86.70
49222;DHT22;35047;37.588;-122.048;2023-01-10T11:54:42;16.20;87.30
49222;DHT22;35047;37.588;-122.048;2023-01-10T11:57:20;16.10;86.60
49222;DHT22;35047;37.588;-122.048;2023-01-10T12:00:00;16.10;85.60
49222;DHT22;35047;37.588;-122.048;2023-01-10T12:02:40;16.00;86.70
49222;DHT22;35047;37.588;-122.048;2023-01-10T12:05:10;15.90;88.30
49222;DHT22;35047;37.588;-122.048;2023-01-10T12:08:01;15.90;86.80
49222;DHT22;35047;37.588;-122.048;2023-01-10T12:10:32;15.90;87.00
49222;DHT22;35047;37.588;-122.048;2023-01-10T12:13:12;15.70;87.40
49222;DHT22;35047;37.588;-122.048;2023-01-10T12:15:39;15.60;87.20
49222;DHT22;35047;37.588;-122.048;2023-01-10T12:18:09;15.80;87.00
49222;DHT22;35047;37.588;-122.048;2023-01-10T12:20:54;15.80;87.10
49222;DHT22;35047;37.588;-122.048;2023-01-10T12:23:24;15.70;88.20
49222;DHT22;35047;37.588;-122.048;2023-01-10T12:25:51;15.80;90.10
49222;DHT22;35047;37.588;-122.048;2023-01-10T12:28:26;15.70;89.10
49222;DHT22;35047;37.588;-122.048;2023-01-10T12:30:57;15.70;88.90
49222;DHT22;35047;37.588;-122.048;2023-01-10T12:33:32;15.70;90.20
49222;DHT22;35047;37.588;-122.048;2023-01-10T12:38:43;15.70;89.00
49222;DHT22;35047;37.588;-122.048;2023-01-10T12:44:29;15.70;87.80
49222;DHT22;35047;37.588;-122.048;2023-01-10T12:50:28;15.70;87.90
49222;DHT22;35047;37.588;-122.048;2023-01-10T12:53:29;15.80;86.70
49222;DHT22;35047;37.588;-122.048;2023-01-10T12:55:59;15.80;87.30
49222;DHT22;35047;37.588;-122.048;2023-01-10T12:58:44;15.90;86.80
49222;DHT22;35047;37.588;-122.048;2023-01-10T13:01:38;16.00;87.10
49222;DHT22;35047;37.588;-122.048;2023-01-10T13:04:12;15.90;86.20
49222;DHT22;35047;37.588;-122.048;2023-01-10T13:06:42;15.90;88.60
49222;DHT22;35047;37.588;-122.048;2023-01-10T13:14:45;15.90;87.60
49222;DHT22;35047;37.588;-122.048;2023-01-10T13:22:44;15.90;86.20
49222;DHT22;35047;37.588;-122.048;2023-01-10T13:25:25;15.90;86.90
49222;DHT22;35047;37.588;-122.048;2023-01-10T13:30:37;15.90;86.60
49222;DHT22;35047;37.588;-122.048;2023-01-10T13:33:20;15.80;86.60
49222;DHT22;35047;37.588;-122.048;2023-01-10T13:35:48;15.70;86.80
49222;DHT22;35047;37.588;-122.048;2023-01-10T13:38:48;15.70;86.20
49222;DHT22;35047;37.588;-122.048;2023-01-10T13:41:16;15.70;86.00
49222;DHT22;35047;37.588;-122.048;2023-01-10T13:44:11;15.80;85.90
49222;DHT22;35047;37.588;-122.048;2023-01-10T13:46:44;15.80;86.10
49222;DHT22;35047;37.588;-122.048;2023-01-10T13:51:39;15.60;87.20
49222;DHT22;35047;37.588;-122.048;2023-01-10T13:54:26;15.40;87.70
49222;DHT22;35047;37.588;-122.048;2023-01-10T13:56:53;15.40;88.70
49222;DHT22;35047;37.588;-122.048;2023-01-10T14:02:21;15.20;89.40
49222;DHT22;35047;37.588;-122.048;2023-01-10T14:05:16;15.30;87.60
49222;DHT22;35047;37.588;-122.048;2023-01-10T14:07:51;15.40;86.70
49222;DHT22;35047;37.588;-122.048;2023-01-10T14:10:29;15.40;86.90
49222;DHT22;35047;37.588;-122.048;2023-01-10T14:15:29;15.40;85.70
49222;DHT22;35047;37.588;-122.048;2023-01-10T14:18:21;15.50;86.90
49222;DHT22;35047;37.588;-122.048;2023-01-10T14:23:51;15.50;87.80
49222;DHT22;35047;37.588;-122.048;2023-01-10T14:26:30;15.40;86.50
49222;DHT22;35047;37.588;-122.048;2023-01-10T14:28:59;15.50;87.10
49222;DHT22;35047;37.588;-122.048;2023-01-10T14:31:28;15.60;85.80
49222;DHT22;35047;37.588;-122.048;2023-01-10T14:33:57;15.50;86.30
49222;DHT22;35047;37.588;-122.048;2023-01-10T14:36:32;15.60;84.90
49222;DHT22;35047;37.588;-122.048;2023-01-10T14:39:02;15.50;84.90
49222;DHT22;35047;37.588;-122.048;2023-01-10T14:41:40;15.60;85.00
49222;DHT22;35047;37.588;-122.048;2023-01-10T14:44:40;15.70;84.50
49222;DHT22;35047;37.588;-122.048;2023-01-10T14:47:30;15.70;85.10
49222;DHT22;35047;37.588;-122.048;2023-01-10T14:49:57;15.70;84.70
49222;DHT22;35047;37.588;-122.048;2023-01-10T14:52:33;15.70;85.30
49222;DHT22;35047;37.588;-122.048;2023-01-10T14:55:08;15.80;85.60
49222;DHT22;35047;37.588;-122.048;2023-01-10T14:57:36;15.90;85.20
49222;DHT22;35047;37.588;-122.048;2023-01-10T15:00:07;15.90;85.20
49222;DHT22;35047;37.588;-122.048;2023-01-10T15:02:43;16.00;85.60
49222;DHT22;35047;37.588;-122.048;2023-01-10T15:05:24;16.00;85.60
49222;DHT22;35047;37.588;-122.048;2023-01-10T15:07:53;16.10;84.80
49222;DHT22;35047;37.588;-122.048;2023-01-10T15:10:37;16.10;86.00
49222;DHT22;35047;37.588;-122.048;2023-01-10T15:13:05;16.10;85.10
49222;DHT22;35047;37.588;-122.048;2023-01-10T15:15:37;16.10;85.90
49222;DHT22;35047;37.588;-122.048;2023-01-10T15:21:02;16.30;82.90
49222;DHT22;35047;37.588;-122.048;2023-01-10T15:23:39;15.80;82.20
49222;DHT22;35047;37.588;-122.048;2023-01-10T15:26:16;15.60;84.60
49222;DHT22;35047;37.588;-122.048;2023-01-10T15:31:30;15.40;83.80
49222;DHT22;35047;37.588;-122.048;2023-01-10T15:34:00;15.20;83.10
49222;DHT22;35047;37.588;-122.048;2023-01-10T15:36:32;15.20;82.10
49222;DHT22;35047;37.588;-122.048;2023-01-10T15:39:00;15.20;81.70
49222;DHT22;35047;37.588;-122.048;2023-01-10T15:41:26;15.20;82.80
49222;DHT22;35047;37.588;-122.048;2023-01-10T15:43:53;15.30;81.10
49222;DHT22;35047;37.588;-122.048;2023-01-10T15:46:22;15.20;81.50
49222;DHT22;35047;37.588;-122.048;2023-01-10T15:48:58;15.20;81.90
49222;DHT22;35047;37.588;-122.048;2023-01-10T15:51:39;15.20;82.10
49222;DHT22;35047;37.588;-122.048;2023-01-10T15:56:51;15.50;82.40
49222;DHT22;35047;37.588;-122.048;2023-01-10T15:59:45;15.40;82.40
49222;DHT22;35047;37.588;-122.048;2023-01-10T16:02:32;15.50;84.00
49222;DHT22;35047;37.588;-122.048;2023-01-10T16:05:13;15.80;83.90
49222;DHT22;35047;37.588;-122.048;2023-01-10T16:07:45;15.90;84.10
49222;DHT22;35047;37.588;-122.048;2023-01-10T16:10:21;16.10;85.00
49222;DHT22;35047;37.588;-122.048;2023-01-10T16:12:51;16.30;84.70
49222;DHT22;35047;37.588;-122.048;2023-01-10T16:15:39;16.50;87.50
49222;DHT22;35047;37.588;-122.048;2023-01-10T16:18:07;16.70;88.40
49222;DHT22;35047;37.588;-122.048;2023-01-10T16:20:44;16.80;87.20
49222;DHT22;35047;37.588;-122.048;2023-01-10T16:23:18;17.10;90.10
49222;DHT22;35047;37.588;-122.048;2023-01-10T16:25:51;17.10;84.30
49222;DHT22;35047;37.588;-122.048;2023-01-10T16:28:20;16.70;78.80
49222;DHT22;35047;37.588;-122.048;2023-01-10T16:30:48;16.30;80.20
49222;DHT22;35047;37.588;-122.048;2023-01-10T16:33:20;15.80;83.90
49222;DHT22;35047;37.588;-122.048;2023-01-10T16:35:53;15.60;85.30
49222;DHT22;35047;37.588;-122.048;2023-01-10T16:38:21;15.40;87.10
49222;DHT22;35047;37.588;-122.048;2023-01-10T16:40:56;15.10;88.60
49222;DHT22;35047;37.588;-122.048;2023-01-10T16:43:23;15.00;90.00
49222;DHT22;35047;37.588;-122.048;2023-01-10T16:45:54;14.90;90.30
49222;DHT22;35047;37.588;-122.048;2023-01-10T16:48:29;14.70;90.50
49222;DHT22;35047;37.588;-122.048;2023-01-10T16:51:16;14.70;90.50
49222;DHT22;35047;37.588;-122.048;2023-01-10T16:53:44;14.70;90.90
49222;DHT22;35047;37.588;-122.048;2023-01-10T16:56:14;14.70;90.30
49222;DHT22;35047;37.588;-122.048;2023-01-10T16:58:41;14.80;90.80
49222;DHT22;35047;37.588;-122.048;2023-01-10T17:01:17;14.80;90.00
49222;DHT22;35047;37.588;-122.048;2023-01-10T17:03:45;14.90;90.00
49222;DHT22;35047;37.588;-122.048;2023-01-10T17:06:14;14.90;90.50
49222;DHT22;35047;37.588;-122.048;2023-01-10T17:08:41;14.90;89.00
49222;DHT22;35047;37.588;-122.048;2023-01-10T17:11:17;15.00;90.50
49222;DHT22;35047;37.588;-122.048;2023-01-10T17:13:45;15.30;91.00
49222;DHT22;35047;37.588;-122.048;2023-01-10T17:16:12;15.40;90.30
49222;DHT22;35047;37.588;-122.048;2023-01-10T17:18:41;15.40;89.30
49222;DHT22;35047;37.588;-122.048;2023-01-10T17:21:13;15.60;88.50
49222;DHT22;35047;37.588;-122.048;2023-01-10T17:23:41;15.60;89.90